Bagdad, Arizona
Current Conditions -  °F | °C
As of 11:53 AM on Thursday 27 Nov 2014 (Local Time) from KPRC Reporting Station
Clear Clear  
Wind Chill: 63°   Ceiling: Unl
Heat Index: 63°   Visibility: 10mi
Dew Point: 14°   Wind: 0mph
Humidity: 15%   Direction: NA
Pressure: 30.36"   Gusts: NA
Location:  34.58°N, 113.17°W
Report Text: KPRC 271853Z 00000KT 10SM CLR 17/M10 A3036 RMK AO2 SLP240 T01721100
Loading
Personal Weather Stations






























Interactive Weather Map New forecast layout! Learn more

10-Day Weather Forecast

Advertisements
Track Severe Weather on mobile